createdAt,value
2023-04-09T00:01:14.397Z,102567.88
2023-04-09T00:03:41.400Z,102570.47
2023-04-09T00:06:08.355Z,102568.75
2023-04-09T00:08:35.464Z,102556.53
2023-04-09T00:11:02.362Z,102561.59
2023-04-09T00:13:38.561Z,102561.47
2023-04-09T00:16:06.899Z,102555.91
2023-04-09T00:18:33.859Z,102558.47
2023-04-09T00:21:00.791Z,102556.63
2023-04-09T00:23:27.753Z,102558.19
2023-04-09T00:25:54.713Z,102568.56
2023-04-09T00:28:21.633Z,102558.19
2023-04-09T00:30:48.564Z,102551.31
2023-04-09T00:33:15.816Z,102552.13
2023-04-09T00:35:42.857Z,102550.56
2023-04-09T00:38:09.845Z,102548.84
2023-04-09T00:40:36.753Z,102551.44
2023-04-09T00:43:04.040Z,102554.09
2023-04-09T00:45:31.012Z,102557.75
2023-04-09T00:47:57.994Z,102560.56
2023-04-09T00:50:25.450Z,102557.09
2023-04-09T00:52:52.495Z,102558.16
2023-04-09T00:55:21.395Z,102554.50
2023-04-09T00:57:48.328Z,102552.00
2023-04-09T01:00:15.722Z,102556.44
2023-04-09T01:02:44.057Z,102556.44
2023-04-09T01:05:13.079Z,102535.03
2023-04-09T01:08:08.999Z,102553.28
2023-04-09T01:10:47.743Z,102558.34
2023-04-09T01:13:40.231Z,102550.41
2023-04-09T01:16:10.635Z,102556.50
2023-04-09T01:18:44.603Z,102563.38
2023-04-09T01:21:20.205Z,102563.25
2023-04-09T01:24:31.662Z,102570.16
2023-04-09T01:27:09.086Z,102570.03
2023-04-09T01:29:53.017Z,102554.81
2023-04-09T01:32:21.398Z,102566.38
2023-04-09T01:34:49.314Z,102569.72
2023-04-09T01:37:16.983Z,102569.72
2023-04-09T01:39:44.745Z,102562.06
2023-04-09T01:42:12.949Z,102561.22
2023-04-09T01:44:40.684Z,102558.63
2023-04-09T01:47:08.848Z,102553.63
2023-04-09T01:49:37.727Z,102559.91
2023-04-09T01:52:05.362Z,102554.16
2023-04-09T01:54:32.977Z,102546.56
2023-04-09T01:56:59.964Z,102550.16
2023-04-09T01:59:26.869Z,102552.94
2023-04-09T02:02:00.415Z,102545.91
2023-04-09T02:04:37.423Z,102555.25
2023-04-09T02:07:14.132Z,102543.69
2023-04-09T02:09:42.158Z,102547.00
2023-04-09T02:12:14.947Z,102546.88
2023-04-09T02:14:42.692Z,102549.47
2023-04-09T02:17:09.691Z,102546.81
2023-04-09T02:19:45.255Z,102554.66
2023-04-09T02:22:14.511Z,102546.88
2023-04-09T02:24:41.603Z,102551.13
2023-04-09T02:27:08.647Z,102551.03
2023-04-09T02:29:35.622Z,102552.84
2023-04-09T02:32:02.612Z,102547.81
2023-04-09T02:34:29.519Z,102550.59
2023-04-09T02:36:56.407Z,102544.78
2023-04-09T02:39:23.322Z,102549.38
2023-04-09T02:41:50.457Z,102546.91
2023-04-09T02:44:17.348Z,102550.44
2023-04-09T02:46:46.809Z,102557.41
2023-04-09T02:49:13.699Z,102555.56
2023-04-09T02:51:40.650Z,102550.94
2023-04-09T02:54:07.557Z,102552.53
2023-04-09T02:56:34.485Z,102547.00
2023-04-09T02:59:01.360Z,102552.75
2023-04-09T03:01:28.354Z,102540.31
2023-04-09T03:03:55.515Z,102542.84
2023-04-09T03:06:22.490Z,102541.00
2023-04-09T03:08:49.507Z,102551.25
2023-04-09T03:11:16.538Z,102544.31
2023-04-09T03:13:43.439Z,102552.84
2023-04-09T03:16:10.597Z,102544.22
2023-04-09T03:18:37.778Z,102540.66
2023-04-09T03:21:08.936Z,102539.88
2023-04-09T03:23:38.865Z,102535.47
2023-04-09T03:26:07.709Z,102525.81
2023-04-09T03:28:42.255Z,102526.06
2023-04-09T03:31:09.231Z,102523.34
2023-04-09T03:33:38.307Z,102538.22
2023-04-09T03:36:05.485Z,102537.28
2023-04-09T03:38:46.618Z,102539.00
2023-04-09T03:41:26.455Z,102530.38
2023-04-09T03:43:54.556Z,102520.88
2023-04-09T03:46:26.309Z,102526.47
2023-04-09T03:48:53.706Z,102533.50
2023-04-09T03:51:24.690Z,102526.50
2023-04-09T03:53:56.460Z,102529.09
2023-04-09T03:56:23.411Z,102535.13
2023-04-09T03:58:51.032Z,102536.72
2023-04-09T04:01:21.727Z,102527.03
2023-04-09T04:03:55.896Z,102532.22
2023-04-09T04:06:24.986Z,102533.22
2023-04-09T04:09:07.209Z,102527.97
2023-04-09T04:11:42.148Z,102534.94
2023-04-09T04:14:09.285Z,102528.94
2023-04-09T04:16:36.865Z,102526.34
2023-04-09T04:19:05.970Z,102526.06
2023-04-09T04:21:39.280Z,102523.53
2023-04-09T04:24:06.991Z,102522.59
2023-04-09T04:26:33.912Z,102532.22
2023-04-09T04:29:00.897Z,102529.53
2023-04-09T04:31:42.381Z,102527.66
2023-04-09T04:34:09.337Z,102531.03
2023-04-09T04:36:37.728Z,102530.91
2023-04-09T04:39:05.437Z,102532.84
2023-04-09T04:41:43.973Z,102533.16
2023-04-09T04:44:16.128Z,102533.41
2023-04-09T04:46:43.150Z,102527.63
2023-04-09T04:49:11.264Z,102525.97
2023-04-09T04:51:45.730Z,102533.16
2023-04-09T04:54:14.787Z,102523.56
2023-04-09T04:56:48.612Z,102529.09
2023-04-09T04:59:42.589Z,102531.78
2023-04-09T05:02:12.092Z,102545.81
2023-04-09T05:05:11.635Z,102537.81
2023-04-09T05:07:44.835Z,102536.81
2023-04-09T05:10:11.841Z,102537.91
2023-04-09T05:12:42.024Z,102527.13
2023-04-09T05:15:10.714Z,102548.28
2023-04-09T05:17:38.422Z,102543.84
2023-04-09T05:20:08.466Z,102552.56
2023-04-09T05:22:46.291Z,102550.06
2023-04-09T05:25:16.332Z,102553.59
2023-04-09T05:27:43.582Z,102549.16
2023-04-09T05:30:10.813Z,102554.38
2023-04-09T05:32:38.636Z,102560.34
2023-04-09T05:35:06.225Z,102567.28
2023-04-09T05:37:38.617Z,102550.81
2023-04-09T05:40:06.908Z,102570.34
2023-04-09T05:42:33.955Z,102564.50
2023-04-09T05:45:05.448Z,102562.03
2023-04-09T05:47:32.739Z,102563.00
2023-04-09T05:50:08.397Z,102563.75
2023-04-09T05:52:35.822Z,102570.66
2023-04-09T05:55:03.844Z,102567.09
2023-04-09T05:57:42.181Z,102562.56
2023-04-09T06:00:09.699Z,102552.72
2023-04-09T06:02:47.444Z,102562.69
2023-04-09T06:05:14.443Z,102571.47
2023-04-09T06:07:41.337Z,102562.91
2023-04-09T06:10:08.832Z,102562.03
2023-04-09T06:12:36.260Z,102565.63
2023-04-09T06:15:07.365Z,102566.47
2023-04-09T06:17:34.301Z,102565.72
2023-04-09T06:20:01.217Z,102566.78
2023-04-09T06:22:28.095Z,102573.91
2023-04-09T06:24:55.092Z,102571.34
2023-04-09T06:27:22.812Z,102575.97
2023-04-09T06:29:49.698Z,102573.75
2023-04-09T06:32:16.976Z,102571.59
2023-04-09T06:34:43.892Z,102572.06
2023-04-09T06:37:10.872Z,102574.97
2023-04-09T06:39:40.394Z,102573.84
2023-04-09T06:42:09.436Z,102580.34
2023-04-09T06:44:49.177Z,102577.22
2023-04-09T06:47:16.107Z,102579.38
2023-04-09T06:49:43.012Z,102582.41
2023-04-09T06:52:09.973Z,102577.47
2023-04-09T06:54:36.882Z,102574.28
2023-04-09T06:57:03.827Z,102583.31
2023-04-09T06:59:30.925Z,102576.41
2023-04-09T07:01:57.925Z,102584.63
2023-04-09T07:04:24.996Z,102583.09
2023-04-09T07:06:54.700Z,102583.16
2023-04-09T07:09:21.613Z,102580.91
2023-04-09T07:11:48.520Z,102588.84
2023-04-09T07:14:15.398Z,102576.78
2023-04-09T07:16:42.977Z,102587.34
2023-04-09T07:19:10.238Z,102578.91
2023-04-09T07:21:37.153Z,102581.69
2023-04-09T07:24:04.090Z,102589.69
2023-04-09T07:26:31.330Z,102588.13
2023-04-09T07:28:58.510Z,102590.91
2023-04-09T07:31:25.756Z,102588.47
2023-04-09T07:33:53.023Z,102590.47
2023-04-09T07:36:20.337Z,102585.44
2023-04-09T07:38:47.495Z,102588.25
2023-04-09T07:41:14.661Z,102583.22
2023-04-09T07:43:41.863Z,102588.44
2023-04-09T07:46:08.970Z,102591.28
2023-04-09T07:48:35.952Z,102592.22
2023-04-09T07:51:03.137Z,102589.53
2023-04-09T07:53:30.026Z,102593.75
2023-04-09T07:55:57.104Z,102594.69
2023-04-09T07:58:24.001Z,102592.16
2023-04-09T08:00:50.924Z,102596.66
2023-04-09T08:03:19.005Z,102591.50
2023-04-09T08:05:46.379Z,102594.19
2023-04-09T08:08:13.277Z,102610.00
2023-04-09T08:10:40.397Z,102605.81
2023-04-09T08:13:07.594Z,102605.59
2023-04-09T08:15:35.246Z,102613.09
2023-04-09T08:18:04.114Z,102608.59
2023-04-09T08:20:32.977Z,102613.00
2023-04-09T08:22:59.851Z,102613.94
2023-04-09T08:25:26.769Z,102613.19
2023-04-09T08:27:53.661Z,102608.06
2023-04-09T08:30:21.152Z,102607.19
2023-04-09T08:32:48.513Z,102609.13
2023-04-09T08:35:15.924Z,102617.19
2023-04-09T08:37:43.623Z,102612.06
2023-04-09T08:40:11.666Z,102612.09
2023-04-09T08:42:46.083Z,102614.84
2023-04-09T08:45:13.357Z,102618.34
2023-04-09T08:47:42.493Z,102610.84
2023-04-09T08:50:09.899Z,102614.50
2023-04-09T08:52:37.409Z,102607.53
2023-04-09T08:55:04.677Z,102614.50
2023-04-09T08:57:38.385Z,102608.47
2023-04-09T09:00:06.938Z,102605.16
2023-04-09T09:02:34.186Z,102611.41
2023-04-09T09:05:01.649Z,102603.78
2023-04-09T09:07:32.200Z,102601.16
2023-04-09T09:10:03.719Z,102606.53
2023-04-09T09:12:43.077Z,102615.31
2023-04-09T09:15:28.099Z,102610.25
2023-04-09T09:17:58.117Z,102605.22
2023-04-09T09:20:27.081Z,102603.59
2023-04-09T09:22:56.806Z,102609.09
2023-04-09T09:25:25.794Z,102599.59
2023-04-09T09:27:53.917Z,102601.63
2023-04-09T09:30:26.917Z,102604.44
2023-04-09T09:33:12.210Z,102607.03
2023-04-09T09:35:50.648Z,102602.84
2023-04-09T09:38:18.328Z,102598.81
2023-04-09T09:40:45.646Z,102602.56
2023-04-09T09:43:14.679Z,102601.56
2023-04-09T09:45:43.831Z,102592.56
2023-04-09T09:48:12.839Z,102599.66
2023-04-09T09:50:41.889Z,102587.38
2023-04-09T09:53:11.357Z,102600.72
2023-04-09T09:55:48.266Z,102597.47
2023-04-09T09:58:25.288Z,102596.72
2023-04-09T10:00:53.296Z,102602.06
2023-04-09T10:03:30.252Z,102596.09
2023-04-09T10:05:58.659Z,102591.81
2023-04-09T10:08:26.049Z,102598.09
2023-04-09T10:10:53.396Z,102591.28
2023-04-09T10:13:29.663Z,102585.19
2023-04-09T10:15:57.525Z,102585.25
2023-04-09T10:18:24.801Z,102582.00
2023-04-09T10:20:57.179Z,102575.91
2023-04-09T10:23:36.443Z,102581.19
2023-04-09T10:26:04.300Z,102580.56
2023-04-09T10:28:31.244Z,102583.41
2023-04-09T10:30:59.483Z,102585.34
2023-04-09T10:33:28.776Z,102578.53
2023-04-09T10:36:02.137Z,102576.81
2023-04-09T10:38:38.209Z,102582.00
2023-04-09T10:41:28.678Z,102577.44
2023-04-09T10:43:57.457Z,102578.25
2023-04-09T10:46:37.185Z,102581.63
2023-04-09T10:49:18.065Z,102583.84
2023-04-09T10:52:05.232Z,102583.63
2023-04-09T10:54:35.129Z,102581.03
2023-04-09T10:57:07.764Z,102580.03
2023-04-09T10:59:41.116Z,102574.72
2023-04-09T11:02:14.759Z,102577.16
2023-04-09T11:05:07.299Z,102578.97
2023-04-09T11:07:41.449Z,102572.16
2023-04-09T11:10:09.071Z,102570.72
2023-04-09T11:12:36.028Z,102583.19
2023-04-09T11:15:03.217Z,102572.84
2023-04-09T11:17:31.233Z,102578.00
2023-04-09T11:19:58.169Z,102571.66
2023-04-09T11:22:25.195Z,102574.06
2023-04-09T11:24:54.232Z,102580.88
2023-04-09T11:27:21.696Z,102573.78
2023-04-09T11:29:48.610Z,102578.91
2023-04-09T11:32:15.498Z,102568.56
2023-04-09T11:34:42.399Z,102578.22
2023-04-09T11:37:16.872Z,102573.91
2023-04-09T11:39:46.911Z,102565.25
2023-04-09T11:42:16.927Z,102571.63
2023-04-09T11:44:46.989Z,102570.91
2023-04-09T11:47:14.666Z,102572.78
2023-04-09T11:49:41.576Z,102571.88
2023-04-09T11:52:08.548Z,102574.66
2023-04-09T11:54:35.445Z,102569.75
2023-04-09T11:57:05.642Z,102574.44
2023-04-09T11:59:32.566Z,102573.81
2023-04-09T12:01:59.779Z,102572.31
2023-04-09T12:04:26.778Z,102577.72
2023-04-09T12:06:58.770Z,102567.03
2023-04-09T12:09:26.189Z,102581.06
2023-04-09T12:11:53.169Z,102579.53
2023-04-09T12:14:22.143Z,102585.78
2023-04-09T12:16:52.754Z,102588.34
2023-04-09T12:19:21.113Z,102576.75
2023-04-09T12:21:54.612Z,102582.91
2023-04-09T12:24:25.976Z,102580.25
2023-04-09T12:26:53.230Z,102575.91
2023-04-09T12:29:21.513Z,102571.41
2023-04-09T12:31:48.502Z,102572.25
2023-04-09T12:34:15.473Z,102578.38
2023-04-09T12:36:42.420Z,102582.81
2023-04-09T12:39:09.755Z,102574.84
2023-04-09T12:41:36.992Z,102576.31
2023-04-09T12:44:04.987Z,102580.44
2023-04-09T12:46:32.493Z,102577.00
2023-04-09T12:48:59.688Z,102583.19
2023-04-09T12:51:26.588Z,102580.47
2023-04-09T12:53:53.718Z,102578.63
2023-04-09T12:56:20.740Z,102576.84
2023-04-09T12:58:47.630Z,102574.22
2023-04-09T13:01:14.576Z,102576.81
2023-04-09T13:03:42.076Z,102568.78
2023-04-09T13:06:09.235Z,102570.38
2023-04-09T13:08:36.376Z,102573.94
2023-04-09T13:11:04.319Z,102568.66
2023-04-09T13:13:31.544Z,102577.16
2023-04-09T13:15:58.457Z,102568.91
2023-04-09T13:18:25.345Z,102571.31
2023-04-09T13:20:52.220Z,102569.31
2023-04-09T13:23:19.149Z,102562.28
2023-04-09T13:25:46.030Z,102564.34
2023-04-09T13:28:12.917Z,102568.84
2023-04-09T13:30:39.856Z,102558.28
2023-04-09T13:33:06.841Z,102550.34
2023-04-09T13:35:33.797Z,102562.81
2023-04-09T13:38:00.993Z,102558.47
2023-04-09T13:40:27.892Z,102560.13
2023-04-09T13:42:54.784Z,102556.66
2023-04-09T13:45:23.770Z,102560.25
2023-04-09T13:47:51.010Z,102554.47
2023-04-09T13:50:18.057Z,102558.28
2023-04-09T13:52:44.963Z,102555.13
2023-04-09T13:55:12.045Z,102547.38
2023-04-09T13:57:38.979Z,102550.16
2023-04-09T14:00:08.195Z,102554.72
2023-04-09T14:02:35.234Z,102544.25
2023-04-09T14:05:03.921Z,102548.75
2023-04-09T14:07:30.951Z,102546.38
2023-04-09T14:09:58.029Z,102544.72
2023-04-09T14:12:24.914Z,102533.47
2023-04-09T14:14:52.206Z,102531.81
2023-04-09T14:17:19.105Z,102532.88
2023-04-09T14:19:45.991Z,102527.69
2023-04-09T14:22:12.951Z,102522.44
2023-04-09T14:24:40.592Z,102522.56
2023-04-09T14:27:08.207Z,102528.75
2023-04-09T14:29:35.550Z,102521.03
2023-04-09T14:32:02.561Z,102519.44
2023-04-09T14:34:32.493Z,102519.56
2023-04-09T14:36:59.429Z,102516.13
2023-04-09T14:39:26.319Z,102517.91
2023-04-09T14:41:54.436Z,102517.16
2023-04-09T14:44:21.473Z,102510.19
2023-04-09T14:46:48.413Z,102515.34
2023-04-09T14:49:15.388Z,102509.94
2023-04-09T14:51:42.278Z,102494.97
2023-04-09T14:54:09.210Z,102499.44
2023-04-09T14:56:36.098Z,102496.88
2023-04-09T14:59:03.065Z,102491.63
2023-04-09T15:01:31.211Z,102495.03
2023-04-09T15:03:59.974Z,102482.69
2023-04-09T15:06:27.943Z,102489.69
2023-04-09T15:08:55.040Z,102483.41
2023-04-09T15:11:24.813Z,102485.88
2023-04-09T15:13:52.208Z,102482.84
2023-04-09T15:16:24.575Z,102474.00
2023-04-09T15:18:52.508Z,102472.25
2023-04-09T15:21:19.761Z,102468.84
2023-04-09T15:23:46.690Z,102470.63
2023-04-09T15:26:13.590Z,102469.88
2023-04-09T15:28:40.633Z,102476.22
2023-04-09T15:31:07.799Z,102477.94
2023-04-09T15:33:34.777Z,102481.38
2023-04-09T15:36:01.693Z,102476.13
2023-04-09T15:38:28.610Z,102483.03
2023-04-09T15:40:58.252Z,102475.13
2023-04-09T15:43:25.274Z,102471.63
2023-04-09T15:45:52.214Z,102461.72
2023-04-09T15:48:19.510Z,102470.44
2023-04-09T15:50:46.800Z,102475.56
2023-04-09T15:53:15.041Z,102479.00
2023-04-09T15:55:42.341Z,102474.50
2023-04-09T15:58:09.336Z,102477.06
2023-04-09T16:00:36.335Z,102472.72
2023-04-09T16:03:03.385Z,102469.13
2023-04-09T16:05:30.326Z,102466.47
2023-04-09T16:07:59.746Z,102473.28
2023-04-09T16:10:26.873Z,102479.34
2023-04-09T16:12:53.814Z,102477.56
2023-04-09T16:15:20.691Z,102481.88
2023-04-09T16:17:47.605Z,102481.78
2023-04-09T16:20:14.604Z,102482.53
2023-04-09T16:22:41.521Z,102486.78
2023-04-09T16:25:08.999Z,102476.13
2023-04-09T16:27:35.909Z,102480.31
2023-04-09T16:30:03.014Z,102476.84
2023-04-09T16:32:29.951Z,102475.13
2023-04-09T16:35:00.511Z,102476.94
2023-04-09T16:37:27.991Z,102484.78
2023-04-09T16:39:54.931Z,102477.75
2023-04-09T16:42:22.592Z,102490.75
2023-04-09T16:44:50.248Z,102496.66
2023-04-09T16:47:17.171Z,102487.94
2023-04-09T16:49:44.051Z,102488.78
2023-04-09T16:52:11.013Z,102492.22
2023-04-09T16:54:37.885Z,102495.56
2023-04-09T16:57:05.012Z,102484.09
2023-04-09T16:59:32.432Z,102487.59
2023-04-09T17:01:59.448Z,102488.53
2023-04-09T17:04:27.194Z,102485.91
2023-04-09T17:06:54.221Z,102483.34
2023-04-09T17:09:21.110Z,102477.19
2023-04-09T17:11:48.000Z,102475.44
2023-04-09T17:14:14.976Z,102477.13
2023-04-09T17:16:41.920Z,102483.06
2023-04-09T17:19:08.929Z,102486.38
2023-04-09T17:21:36.394Z,102484.47
2023-04-09T17:24:03.287Z,102482.66
2023-04-09T17:26:30.189Z,102485.03
2023-04-09T17:28:57.104Z,102490.97
2023-04-09T17:31:24.523Z,102492.69
2023-04-09T17:33:52.275Z,102495.19
2023-04-09T17:36:20.312Z,102492.50
2023-04-09T17:38:48.552Z,102488.78
2023-04-09T17:41:15.736Z,102485.06
2023-04-09T17:43:42.628Z,102480.31
2023-04-09T17:46:09.647Z,102477.09
2023-04-09T17:48:37.360Z,102478.56
2023-04-09T17:51:05.564Z,102476.69
2023-04-09T17:53:32.527Z,102480.00
2023-04-09T17:55:59.413Z,102483.41
2023-04-09T17:58:26.999Z,102483.16
2023-04-09T18:00:53.929Z,102489.88
2023-04-09T18:03:21.114Z,102499.03
2023-04-09T18:05:48.342Z,102504.78
2023-04-09T18:08:15.720Z,102508.00
2023-04-09T18:10:42.728Z,102512.09
2023-04-09T18:13:09.713Z,102505.78
2023-04-09T18:15:37.802Z,102507.31
2023-04-09T18:18:04.733Z,102508.88
2023-04-09T18:20:31.635Z,102525.22
2023-04-09T18:22:58.517Z,102526.88
2023-04-09T18:25:25.455Z,102523.91
2023-04-09T18:27:52.391Z,102516.78
2023-04-09T18:30:19.264Z,102521.84
2023-04-09T18:32:48.195Z,102524.13
2023-04-09T18:35:15.568Z,102516.84
2023-04-09T18:37:42.465Z,102528.81
2023-04-09T18:40:17.413Z,102522.59
2023-04-09T18:42:44.496Z,102522.50
2023-04-09T18:45:11.924Z,102528.47
2023-04-09T18:47:38.880Z,102532.66
2023-04-09T18:50:06.476Z,102525.44
2023-04-09T18:52:38.113Z,102542.56
2023-04-09T18:55:05.751Z,102535.50
2023-04-09T18:57:35.632Z,102537.16
2023-04-09T19:00:03.865Z,102537.88
2023-04-09T19:02:30.944Z,102539.47
2023-04-09T19:04:58.645Z,102532.34
2023-04-09T19:07:25.876Z,102530.38
2023-04-09T19:09:52.766Z,102535.38
2023-04-09T19:12:19.723Z,102529.06
2023-04-09T19:14:46.927Z,102532.44
2023-04-09T19:17:13.919Z,102530.66
2023-04-09T19:19:40.873Z,102531.44
2023-04-09T19:22:07.757Z,102528.84
2023-04-09T19:24:34.667Z,102538.38
2023-04-09T19:27:07.980Z,102534.81
2023-04-09T19:29:35.227Z,102538.19
2023-04-09T19:32:03.429Z,102529.50
2023-04-09T19:34:30.386Z,102523.34
2023-04-09T19:36:57.827Z,102532.72
2023-04-09T19:39:24.724Z,102542.22
2023-04-09T19:41:51.625Z,102550.72
2023-04-09T19:44:18.918Z,102547.00
2023-04-09T19:46:45.905Z,102557.19
2023-04-09T19:49:12.872Z,102552.72
2023-04-09T19:51:39.789Z,102556.84
2023-04-09T19:54:06.807Z,102555.41
2023-04-09T19:56:34.010Z,102559.25
2023-04-09T19:59:01.021Z,102548.41
2023-04-09T20:01:29.121Z,102549.94
2023-04-09T20:03:56.159Z,102551.50
2023-04-09T20:06:23.144Z,102554.69
2023-04-09T20:08:50.154Z,102550.06
2023-04-09T20:11:18.085Z,102549.94
2023-04-09T20:13:47.064Z,102548.84
2023-04-09T20:16:17.065Z,102553.25
2023-04-09T20:18:43.979Z,102550.56
2023-04-09T20:21:14.206Z,102552.22
2023-04-09T20:23:41.357Z,102557.28
2023-04-09T20:26:10.899Z,102552.84
2023-04-09T20:28:37.852Z,102545.69
2023-04-09T20:31:05.133Z,102545.16
2023-04-09T20:33:32.561Z,102545.25
2023-04-09T20:35:59.908Z,102538.69
2023-04-09T20:38:27.042Z,102546.38
2023-04-09T20:40:54.002Z,102541.72
2023-04-09T20:43:21.391Z,102536.28
2023-04-09T20:45:48.356Z,102531.84
2023-04-09T20:48:15.453Z,102528.31
2023-04-09T20:50:42.691Z,102530.91
2023-04-09T20:53:09.593Z,102535.31
2023-04-09T20:55:37.042Z,102534.44
2023-04-09T20:58:04.277Z,102536.94
2023-04-09T21:00:31.185Z,102536.84
2023-04-09T21:02:58.384Z,102534.09
2023-04-09T21:05:25.503Z,102521.00
2023-04-09T21:07:53.216Z,102518.31
2023-04-09T21:10:20.238Z,102518.28
2023-04-09T21:12:47.172Z,102518.13
2023-04-09T21:15:14.110Z,102518.06
2023-04-09T21:17:41.016Z,102511.91
2023-04-09T21:20:08.776Z,102523.88
2023-04-09T21:22:36.045Z,102514.03
2023-04-09T21:25:03.406Z,102525.16
2023-04-09T21:27:30.433Z,102528.53
2023-04-09T21:29:57.555Z,102533.72
2023-04-09T21:32:25.137Z,102529.38
2023-04-09T21:34:52.259Z,102531.84
2023-04-09T21:37:19.166Z,102535.75
2023-04-09T21:39:48.108Z,102531.88
2023-04-09T21:42:15.016Z,102538.47
2023-04-09T21:44:41.898Z,102542.31
2023-04-09T21:47:09.304Z,102538.53
2023-04-09T21:49:40.133Z,102536.41
2023-04-09T21:52:13.860Z,102512.97
2023-04-09T21:54:42.114Z,102535.72
2023-04-09T21:57:09.088Z,102544.31
2023-04-09T21:59:38.539Z,102539.88
2023-04-09T22:02:05.764Z,102538.16
2023-04-09T22:04:34.922Z,102543.63
2023-04-09T22:07:02.676Z,102545.69
2023-04-09T22:09:30.563Z,102530.66
2023-04-09T22:11:58.495Z,102533.25
2023-04-09T22:14:29.655Z,102525.91
2023-04-09T22:16:58.377Z,102535.16
2023-04-09T22:19:26.096Z,102527.41
2023-04-09T22:21:53.469Z,102539.38
2023-04-09T22:24:26.539Z,102545.22
2023-04-09T22:26:53.849Z,102543.28
2023-04-09T22:29:20.779Z,102538.19
2023-04-09T22:31:47.653Z,102541.03
2023-04-09T22:34:21.271Z,102539.56
2023-04-09T22:36:49.080Z,102536.28
2023-04-09T22:39:16.026Z,102536.38
2023-04-09T22:41:43.121Z,102540.00
2023-04-09T22:44:10.043Z,102539.22
2023-04-09T22:46:37.182Z,102539.34
2023-04-09T22:49:05.371Z,102527.31
2023-04-09T22:51:35.043Z,102524.81
2023-04-09T22:54:02.343Z,102518.75
2023-04-09T22:56:31.534Z,102513.34
2023-04-09T22:58:58.481Z,102532.47
2023-04-09T23:01:26.268Z,102516.66
2023-04-09T23:03:53.246Z,102527.25
2023-04-09T23:06:20.693Z,102524.56
2023-04-09T23:08:47.589Z,102526.19
2023-04-09T23:11:14.537Z,102524.41
2023-04-09T23:13:41.418Z,102519.09
2023-04-09T23:16:09.406Z,102519.88
2023-04-09T23:18:36.756Z,102518.13
2023-04-09T23:21:08.421Z,102521.44
2023-04-09T23:23:36.419Z,102523.94
2023-04-09T23:26:04.288Z,102518.53
2023-04-09T23:28:31.633Z,102520.13
2023-04-09T23:30:58.522Z,102520.88
2023-04-09T23:33:25.435Z,102506.03
2023-04-09T23:35:52.340Z,102515.50
2023-04-09T23:38:19.299Z,102501.50
2023-04-09T23:40:47.369Z,102501.50
2023-04-09T23:43:14.478Z,102504.81
2023-04-09T23:45:41.376Z,102491.78
2023-04-09T23:48:08.925Z,102496.91
2023-04-09T23:50:39.634Z,102487.34
2023-04-09T23:53:06.624Z,102489.78
2023-04-09T23:55:37.938Z,102493.09
2023-04-09T23:58:05.393Z,102483.72
